Time;durP1;ratioP1;P1;durP2;ratioP2;P2;SDS_P1;SDS_P2;PMS_P1;PMS_P2;Temp;Humidity;BMP_temperature;BMP_pressure;BME280_temperature;BME280_humidity;BME280_pressure;Samples;Min_cycle;Max_cycle;Signal;HPM_P1;HPM_P2
2022/04/28 00:28:46;;;;;;;7.97;6.08;;;;;;;;;;813097;72;26581;-76
2022/04/28 00:29:56;;;;;;;12.00;6.75;;;;;;;;;;801053;72;26235;-76
2022/04/28 00:31:02;;;;;;;8.38;5.92;;;;;;;;;;803365;72;26709;-75
2022/04/28 00:32:13;;;;;;;7.45;6.70;;;;;;;;;;784131;74;26307;-74
2022/04/28 00:33:23;;;;;;;7.47;6.70;;;;;;;;;;780949;75;26227;-74
2022/04/28 00:51:23;;;;;;;7.37;6.75;;;;;;;;;;766296;76;26282;-74
2022/04/28 00:52:34;;;;;;;8.80;7.30;;;;;;;;;;769796;76;26222;-76
2022/04/28 00:53:48;;;;;;;7.37;6.78;;;;;;;;;;768516;76;26677;-75
2022/04/28 01:13:43;;;;;;;11.55;6.97;;;;;;;;;;762030;77;26371;-76
2022/04/28 01:17:27;;;;;;;7.40;6.67;;;;;;;;;;751761;77;26209;-75
2022/04/28 01:18:36;;;;;;;6.92;6.33;;;;;;;;;;753255;77;26355;-75
2022/04/28 01:19:40;;;;;;;8.15;7.05;;;;;;;;;;756881;76;26366;-77
2022/04/28 01:20:47;;;;;;;7.50;6.67;;;;;;;;;;756054;76;26284;-74
2022/04/28 01:21:52;;;;;;;7.97;6.87;;;;;;;;;;752699;76;26269;-76
2022/04/28 01:23:04;;;;;;;10.08;7.00;;;;;;;;;;742170;78;26328;-74
2022/04/28 01:27:44;;;;;;;8.08;7.30;;;;;;;;;;786453;73;26197;-75
2022/04/28 01:28:57;;;;;;;7.05;6.35;;;;;;;;;;802591;73;26289;-76
2022/04/28 01:30:04;;;;;;;7.50;6.78;;;;;;;;;;803108;73;26683;-75
2022/04/28 01:31:17;;;;;;;10.85;7.25;;;;;;;;;;787196;74;26254;-75
2022/04/28 01:32:25;;;;;;;7.85;7.00;;;;;;;;;;776649;74;26234;-74
2022/04/28 01:37:06;;;;;;;9.40;6.90;;;;;;;;;;765086;76;26719;-75
2022/04/28 01:38:12;;;;;;;9.28;7.15;;;;;;;;;;759093;76;26252;-76
2022/04/28 01:39:23;;;;;;;8.18;7.00;;;;;;;;;;766603;75;26678;-76
2022/04/28 01:40:29;;;;;;;8.08;7.25;;;;;;;;;;765956;76;26304;-75
2022/04/28 01:41:34;;;;;;;8.08;7.25;;;;;;;;;;760424;76;26349;-76
2022/04/28 01:42:45;;;;;;;7.95;7.10;;;;;;;;;;758195;76;26283;-75
2022/04/28 01:58:14;;;;;;;8.40;7.55;;;;;;;;;;789980;74;26249;-77
2022/04/28 01:59:21;;;;;;;9.53;7.30;;;;;;;;;;795334;74;26686;-76
2022/04/28 02:00:29;;;;;;;7.80;7.20;;;;;;;;;;782374;74;26227;-74
2022/04/28 02:01:34;;;;;;;11.35;7.90;;;;;;;;;;793276;74;26243;-75
2022/04/28 02:02:51;;;;;;;8.00;7.20;;;;;;;;;;775658;75;26729;-76
2022/04/28 02:48:39;;;;;;;6.40;5.90;;;;;;;;;;757930;77;26198;-75
2022/04/28 02:49:43;;;;;;;6.33;5.83;;;;;;;;;;762272;77;26325;-74
2022/04/28 02:50:50;;;;;;;6.85;5.90;;;;;;;;;;768230;75;26338;-75
2022/04/28 02:52:14;;;;;;;6.95;6.35;;;;;;;;;;747839;76;26334;-75
2022/04/28 02:53:21;;;;;;;7.05;5.70;;;;;;;;;;760195;76;26701;-76
2022/04/28 02:57:36;;;;;;;6.40;5.90;;;;;;;;;;783383;73;26718;-75
2022/04/28 02:58:49;;;;;;;6.92;6.33;;;;;;;;;;772851;76;26241;-78
2022/04/28 03:00:01;;;;;;;7.00;6.25;;;;;;;;;;788639;75;26661;-76
2022/04/28 03:01:11;;;;;;;6.80;6.20;;;;;;;;;;784027;73;26641;-76
2022/04/28 03:02:20;;;;;;;6.80;6.20;;;;;;;;;;758231;75;26246;-74
2022/04/28 03:10:58;;;;;;;6.20;5.70;;;;;;;;;;791738;74;26244;-76
2022/04/28 03:12:21;;;;;;;7.70;7.10;;;;;;;;;;782593;74;26324;-75
2022/04/28 03:27:28;;;;;;;7.80;7.15;;;;;;;;;;774273;74;26212;-76
2022/04/28 03:28:34;;;;;;;9.73;7.17;;;;;;;;;;775252;76;26387;-76
2022/04/28 03:29:37;;;;;;;7.30;6.70;;;;;;;;;;767049;75;26260;-77
2022/04/28 03:30:46;;;;;;;7.05;6.53;;;;;;;;;;762963;75;26278;-76
2022/04/28 03:31:54;;;;;;;7.45;6.75;;;;;;;;;;761620;77;26316;-76
2022/04/28 03:50:33;;;;;;;8.20;7.50;;;;;;;;;;815015;71;26256;-75
2022/04/28 03:51:36;;;;;;;8.45;7.65;;;;;;;;;;814060;72;26279;-76
2022/04/28 03:52:40;;;;;;;8.90;8.20;;;;;;;;;;814120;72;26236;-75
2022/04/28 03:55:37;;;;;;;7.92;7.33;;;;;;;;;;775777;74;26352;-75
2022/04/28 03:56:40;;;;;;;8.35;7.65;;;;;;;;;;790942;74;26282;-77
2022/04/28 03:57:42;;;;;;;8.33;7.62;;;;;;;;;;789225;75;26587;-75
2022/04/28 03:58:45;;;;;;;8.63;7.83;;;;;;;;;;788817;75;26232;-75
2022/04/28 03:59:48;;;;;;;8.60;7.90;;;;;;;;;;780593;74;26286;-75
2022/04/28 04:00:54;;;;;;;8.38;7.55;;;;;;;;;;788453;74;26298;-76
2022/04/28 04:01:58;;;;;;;9.23;8.53;;;;;;;;;;789222;74;26677;-77
2022/04/28 04:12:43;;;;;;;9.23;8.45;;;;;;;;;;770884;74;26340;-77
2022/04/28 04:18:00;;;;;;;19.10;12.13;;;;;;;;;;783828;74;26230;-76
2022/04/28 04:19:03;;;;;;;16.50;11.68;;;;;;;;;;781070;75;26364;-76
2022/04/28 04:20:07;;;;;;;11.10;9.98;;;;;;;;;;786218;74;26260;-76
2022/04/28 04:21:11;;;;;;;9.98;9.00;;;;;;;;;;780810;75;26260;-78
2022/04/28 04:22:14;;;;;;;9.68;8.30;;;;;;;;;;790653;74;26244;-74
2022/04/28 04:25:35;;;;;;;8.60;7.90;;;;;;;;;;782165;74;26630;-76
2022/04/28 04:26:38;;;;;;;8.50;7.40;;;;;;;;;;785082;75;26244;-75
2022/04/28 04:27:41;;;;;;;8.63;7.83;;;;;;;;;;780168;74;26721;-76
2022/04/28 04:28:44;;;;;;;8.28;7.47;;;;;;;;;;785649;75;26260;-76
2022/04/28 04:29:47;;;;;;;8.40;7.70;;;;;;;;;;785959;74;26681;-76
2022/04/28 04:32:25;;;;;;;8.20;7.60;;;;;;;;;;787005;73;26259;-75
2022/04/28 04:37:29;;;;;;;9.00;8.30;;;;;;;;;;780634;75;26741;-76
2022/04/28 04:38:32;;;;;;;8.30;7.60;;;;;;;;;;777428;74;26884;-75
2022/04/28 04:39:38;;;;;;;8.83;8.10;;;;;;;;;;768074;75;26373;-75
2022/04/28 04:40:41;;;;;;;7.75;7.15;;;;;;;;;;780658;74;26261;-75
2022/04/28 04:41:44;;;;;;;8.80;8.00;;;;;;;;;;770572;74;26715;-76
2022/04/28 04:42:47;;;;;;;8.30;7.60;;;;;;;;;;782880;74;26307;-75
2022/04/28 04:45:43;;;;;;;7.90;7.25;;;;;;;;;;782240;75;26764;-76
2022/04/28 04:46:46;;;;;;;7.35;6.75;;;;;;;;;;782436;75;26395;-77
2022/04/28 04:47:49;;;;;;;7.33;6.72;;;;;;;;;;781430;75;26240;-75
2022/04/28 04:48:52;;;;;;;7.45;6.85;;;;;;;;;;784977;75;26688;-76
2022/04/28 04:49:55;;;;;;;7.17;6.58;;;;;;;;;;777712;75;26880;-77
2022/04/28 04:50:59;;;;;;;7.95;7.15;;;;;;;;;;780190;75;26247;-76
2022/04/28 04:56:16;;;;;;;7.37;6.75;;;;;;;;;;764532;77;26732;-75
2022/04/28 04:57:18;;;;;;;6.45;5.85;;;;;;;;;;753136;77;26266;-76
2022/04/28 04:59:40;;;;;;;7.58;5.65;;;;;;;;;;764779;76;26693;-74
2022/04/28 05:00:42;;;;;;;5.92;5.22;;;;;;;;;;762861;76;26277;-75
2022/04/28 05:01:45;;;;;;;5.05;4.65;;;;;;;;;;762462;76;26727;-76
2022/04/28 05:07:30;;;;;;;6.37;4.60;;;;;;;;;;755356;76;26269;-75
2022/04/28 05:08:33;;;;;;;4.97;4.53;;;;;;;;;;753324;78;26775;-77
2022/04/28 05:09:37;;;;;;;4.35;4.00;;;;;;;;;;753823;77;26285;-75
2022/04/28 05:10:39;;;;;;;7.95;4.90;;;;;;;;;;754596;77;26346;-77
2022/04/28 05:11:42;;;;;;;5.25;4.75;;;;;;;;;;760675;77;24681;-77
2022/04/28 05:14:22;;;;;;;5.45;4.97;;;;;;;;;;766242;74;26292;-75
2022/04/28 05:15:25;;;;;;;4.67;4.28;;;;;;;;;;786058;74;26300;-76
2022/04/28 05:16:28;;;;;;;4.20;3.90;;;;;;;;;;783399;74;26250;-76
2022/04/28 05:17:31;;;;;;;5.08;4.30;;;;;;;;;;785073;74;26246;-76
2022/04/28 05:18:34;;;;;;;4.65;4.25;;;;;;;;;;774659;75;26311;-74
2022/04/28 05:21:11;;;;;;;4.20;3.90;;;;;;;;;;777922;74;26197;-77
2022/04/28 05:22:14;;;;;;;4.97;4.58;;;;;;;;;;768776;75;26269;-74
2022/04/28 05:24:59;;;;;;;4.87;4.33;;;;;;;;;;762214;73;26582;-77
2022/04/28 05:26:02;;;;;;;4.30;3.90;;;;;;;;;;775996;74;26258;-74
2022/04/28 05:27:05;;;;;;;5.15;4.10;;;;;;;;;;773032;74;26258;-76
2022/04/28 05:28:08;;;;;;;4.87;4.30;;;;;;;;;;772630;75;26401;-76
2022/04/28 05:29:11;;;;;;;4.58;4.08;;;;;;;;;;785984;74;26225;-75
2022/04/28 05:30:14;;;;;;;5.08;4.22;;;;;;;;;;796757;74;26361;-75
2022/04/28 05:31:18;;;;;;;4.00;3.70;;;;;;;;;;795105;73;26220;-76
2022/04/28 05:32:20;;;;;;;4.40;4.00;;;;;;;;;;794681;73;26664;-75
2022/04/28 05:36:40;;;;;;;4.40;3.42;;;;;;;;;;792497;73;26208;-73
2022/04/28 05:37:43;;;;;;;4.30;3.95;;;;;;;;;;793924;73;26220;-74
2022/04/28 05:38:46;;;;;;;4.20;3.90;;;;;;;;;;783643;73;26290;-75
2022/04/28 05:41:23;;;;;;;3.55;3.25;;;;;;;;;;785347;73;26749;-74
2022/04/28 05:45:41;;;;;;;2.77;2.67;;;;;;;;;;799952;73;26317;-74
2022/04/28 05:46:25;;;;;;;3.35;3.10;;;;;;;;;;754552;77;26344;-74
2022/04/28 05:47:28;;;;;;;3.45;3.20;;;;;;;;;;761730;76;26374;-75
2022/04/28 05:48:34;;;;;;;3.20;3.00;;;;;;;;;;764408;76;26272;-74
2022/04/28 05:49:38;;;;;;;4.80;2.90;;;;;;;;;;763158;76;26303;-75
2022/04/28 05:50:41;;;;;;;3.40;3.20;;;;;;;;;;767256;76;26244;-73
2022/04/28 05:51:44;;;;;;;3.05;2.85;;;;;;;;;;764403;76;26269;-75
2022/04/28 05:52:47;;;;;;;3.40;3.00;;;;;;;;;;773586;76;26357;-74
2022/04/28 05:53:50;;;;;;;3.33;2.90;;;;;;;;;;761549;76;26243;-76
2022/04/28 05:54:53;;;;;;;3.12;2.83;;;;;;;;;;762676;76;26259;-75
2022/04/28 05:55:56;;;;;;;2.83;2.58;;;;;;;;;;773471;76;26245;-77
2022/04/28 05:56:58;;;;;;;3.02;2.83;;;;;;;;;;772596;76;26304;-75
2022/04/28 05:58:01;;;;;;;3.00;2.80;;;;;;;;;;771705;76;26265;-75
2022/04/28 05:59:04;;;;;;;3.00;2.70;;;;;;;;;;765020;76;26755;-75
2022/04/28 06:00:07;;;;;;;3.37;3.10;;;;;;;;;;769012;76;26326;-74
2022/04/28 06:01:10;;;;;;;2.70;2.50;;;;;;;;;;764387;76;26682;-75
2022/04/28 06:02:13;;;;;;;2.65;2.45;;;;;;;;;;772594;76;26651;-75
2022/04/28 06:03:16;;;;;;;2.92;2.72;;;;;;;;;;772349;76;26258;-74
2022/04/28 06:04:19;;;;;;;2.65;2.45;;;;;;;;;;776274;76;26458;-76
2022/04/28 06:05:22;;;;;;;3.50;2.30;;;;;;;;;;764032;75;26981;-74
2022/04/28 06:06:25;;;;;;;2.30;2.17;;;;;;;;;;772277;76;26688;-76
2022/04/28 06:07:29;;;;;;;2.10;2.00;;;;;;;;;;774360;74;26306;-74
2022/04/28 06:08:32;;;;;;;2.02;1.92;;;;;;;;;;770297;76;26677;-75
2022/04/28 06:09:35;;;;;;;2.20;2.10;;;;;;;;;;768678;76;26387;-77
2022/04/28 06:10:38;;;;;;;2.20;2.10;;;;;;;;;;768317;76;26262;-75
2022/04/28 06:14:35;;;;;;;1.90;1.80;;;;;;;;;;756847;77;26624;-75
2022/04/28 06:15:40;;;;;;;1.90;1.80;;;;;;;;;;768410;76;26676;-75
2022/04/28 06:16:42;;;;;;;1.65;1.55;;;;;;;;;;757907;75;26736;-75
2022/04/28 06:17:45;;;;;;;2.00;1.90;;;;;;;;;;760244;76;26266;-76
2022/04/28 06:18:48;;;;;;;2.05;1.90;;;;;;;;;;755634;76;26467;-76
2022/04/28 06:19:51;;;;;;;2.10;2.00;;;;;;;;;;768323;76;26313;-76
2022/04/28 06:20:56;;;;;;;3.25;2.70;;;;;;;;;;761237;76;26254;-74
2022/04/28 06:21:59;;;;;;;2.40;2.20;;;;;;;;;;767485;75;26669;-74
2022/04/28 06:23:02;;;;;;;2.30;2.20;;;;;;;;;;764138;76;26301;-75
2022/04/28 06:24:05;;;;;;;2.27;2.10;;;;;;;;;;762094;76;26262;-74
2022/04/28 06:25:08;;;;;;;3.17;2.98;;;;;;;;;;770938;76;26388;-77
2022/04/28 06:30:26;;;;;;;2.60;2.40;;;;;;;;;;745565;77;26644;-75
2022/04/28 06:31:29;;;;;;;4.40;2.40;;;;;;;;;;738330;78;26723;-75
2022/04/28 06:32:34;;;;;;;2.42;2.33;;;;;;;;;;734269;78;26844;-74
2022/04/28 06:33:38;;;;;;;3.42;1.95;;;;;;;;;;745699;78;26285;-75
2022/04/28 06:34:41;;;;;;;2.65;2.45;;;;;;;;;;746027;78;26828;-76
2022/04/28 06:35:44;;;;;;;2.58;2.47;;;;;;;;;;748321;78;26289;-76
2022/04/28 06:36:47;;;;;;;2.35;2.17;;;;;;;;;;750234;77;26413;-77
2022/04/28 06:37:49;;;;;;;2.83;2.40;;;;;;;;;;743903;78;26290;-74
2022/04/28 06:38:52;;;;;;;1.90;1.80;;;;;;;;;;749972;78;26397;-75
2022/04/28 06:39:55;;;;;;;2.77;1.77;;;;;;;;;;737921;78;26419;-76
2022/04/28 06:40:58;;;;;;;1.90;1.80;;;;;;;;;;749733;76;26282;-76
2022/04/28 06:42:01;;;;;;;2.50;1.95;;;;;;;;;;750391;78;26373;-76
2022/04/28 06:43:07;;;;;;;1.80;1.70;;;;;;;;;;745742;79;26269;-76
2022/04/28 06:44:10;;;;;;;2.05;1.80;;;;;;;;;;761940;76;26842;-76
2022/04/28 06:45:13;;;;;;;2.00;1.90;;;;;;;;;;762464;75;26739;-76
2022/04/28 06:46:16;;;;;;;1.85;1.75;;;;;;;;;;737642;79;26759;-75
2022/04/28 06:47:21;;;;;;;2.00;1.90;;;;;;;;;;757703;76;26261;-75
2022/04/28 06:48:23;;;;;;;1.98;1.87;;;;;;;;;;750521;77;26445;-76
2022/04/28 06:49:26;;;;;;;3.08;2.77;;;;;;;;;;751035;77;26390;-76
2022/04/28 06:50:29;;;;;;;3.20;2.83;;;;;;;;;;751804;77;26785;-73
2022/04/28 06:51:32;;;;;;;3.72;3.42;;;;;;;;;;749055;77;26730;-75
2022/04/28 06:52:36;;;;;;;6.15;3.60;;;;;;;;;;758048;76;26248;-75
2022/04/28 06:53:38;;;;;;;3.30;3.00;;;;;;;;;;762881;76;26841;-74
2022/04/28 06:54:41;;;;;;;2.55;2.35;;;;;;;;;;756944;76;26249;-76
2022/04/28 06:55:47;;;;;;;4.00;2.65;;;;;;;;;;772626;76;26318;-77
2022/04/28 06:56:50;;;;;;;3.10;2.90;;;;;;;;;;759701;76;26271;-75
2022/04/28 06:57:52;;;;;;;2.98;2.77;;;;;;;;;;769849;76;26392;-76
2022/04/28 06:58:58;;;;;;;3.00;2.77;;;;;;;;;;773695;76;26408;-76
2022/04/28 07:00:03;;;;;;;3.10;2.90;;;;;;;;;;774499;75;26243;-76
2022/04/28 07:01:06;;;;;;;3.60;2.60;;;;;;;;;;765321;75;26336;-75
2022/04/28 07:02:09;;;;;;;3.30;3.05;;;;;;;;;;761960;76;26700;-74
2022/04/28 07:03:12;;;;;;;3.15;2.60;;;;;;;;;;760028;77;26235;-76
2022/04/28 07:04:16;;;;;;;3.00;2.70;;;;;;;;;;763358;76;26432;-75
2022/04/28 07:05:19;;;;;;;3.00;2.10;;;;;;;;;;764204;76;26700;-74
2022/04/28 07:06:23;;;;;;;2.50;2.20;;;;;;;;;;740807;78;26396;-77
2022/04/28 07:07:26;;;;;;;3.60;2.10;;;;;;;;;;741048;78;26326;-77
2022/04/28 07:08:30;;;;;;;2.37;2.25;;;;;;;;;;734692;78;26359;-76
2022/04/28 07:09:33;;;;;;;1.70;1.60;;;;;;;;;;739633;78;26337;-75
2022/04/28 07:10:38;;;;;;;1.80;1.70;;;;;;;;;;731291;79;26297;-77
2022/04/28 07:11:40;;;;;;;3.12;1.87;;;;;;;;;;738835;79;26434;-75
2022/04/28 07:12:43;;;;;;;2.47;2.27;;;;;;;;;;743127;78;26275;-74
2022/04/28 07:15:22;;;;;;;2.90;2.70;;;;;;;;;;789049;73;26695;-75
2022/04/28 07:16:25;;;;;;;3.42;3.12;;;;;;;;;;791237;73;26669;-74
2022/04/28 07:17:28;;;;;;;3.10;2.90;;;;;;;;;;798068;73;26218;-74
2022/04/28 07:18:31;;;;;;;2.85;2.65;;;;;;;;;;800338;73;26427;-75
2022/04/28 07:19:34;;;;;;;3.05;2.75;;;;;;;;;;800946;73;26787;-74
2022/04/28 07:20:37;;;;;;;3.12;2.50;;;;;;;;;;780678;74;26356;-74
2022/04/28 07:21:40;;;;;;;2.95;2.70;;;;;;;;;;797920;73;26304;-75
2022/04/28 07:22:42;;;;;;;2.80;2.60;;;;;;;;;;794045;73;26293;-74
2022/04/28 07:23:48;;;;;;;3.02;2.70;;;;;;;;;;787792;74;26246;-76
2022/04/28 07:24:51;;;;;;;2.47;2.27;;;;;;;;;;796968;74;26304;-76
2022/04/28 07:25:54;;;;;;;2.15;2.05;;;;;;;;;;799673;74;26352;-74
2022/04/28 07:26:57;;;;;;;2.00;1.90;;;;;;;;;;796940;73;26318;-76
2022/04/28 07:28:00;;;;;;;2.20;2.10;;;;;;;;;;793929;73;26408;-76
2022/04/28 07:29:05;;;;;;;2.47;2.27;;;;;;;;;;792822;73;26294;-75
2022/04/28 07:30:08;;;;;;;2.55;2.12;;;;;;;;;;798279;74;26292;-74
2022/04/28 07:31:12;;;;;;;1.92;1.82;;;;;;;;;;795442;73;26255;-75
2022/04/28 07:32:15;;;;;;;1.92;1.82;;;;;;;;;;798789;73;26308;-74
2022/04/28 07:33:19;;;;;;;2.55;2.00;;;;;;;;;;796854;74;26641;-75
2022/04/28 07:34:22;;;;;;;2.70;2.50;;;;;;;;;;796829;74;26332;-75
2022/04/28 07:35:25;;;;;;;2.08;1.98;;;;;;;;;;801005;73;26231;-75
2022/04/28 07:36:28;;;;;;;3.40;1.98;;;;;;;;;;795095;73;26228;-74
2022/04/28 07:37:31;;;;;;;2.00;1.90;;;;;;;;;;799465;73;26298;-76
2022/04/28 07:38:34;;;;;;;1.90;1.80;;;;;;;;;;796743;74;26296;-75
2022/04/28 07:39:37;;;;;;;2.83;1.90;;;;;;;;;;794767;74;26227;-75
2022/04/28 07:40:39;;;;;;;1.80;1.70;;;;;;;;;;798211;74;26685;-74
2022/04/28 07:41:42;;;;;;;5.33;1.90;;;;;;;;;;796575;74;26230;-74
2022/04/28 07:42:45;;;;;;;2.22;2.02;;;;;;;;;;798585;74;26297;-76
2022/04/28 07:43:48;;;;;;;2.02;1.92;;;;;;;;;;797523;74;26242;-77
2022/04/28 07:44:51;;;;;;;2.00;1.90;;;;;;;;;;801370;74;26317;-75
2022/04/28 07:45:54;;;;;;;2.83;2.20;;;;;;;;;;797705;74;26305;-75
2022/04/28 07:46:57;;;;;;;2.20;2.10;;;;;;;;;;795092;74;26673;-76
2022/04/28 07:48:01;;;;;;;2.33;2.20;;;;;;;;;;797594;74;26637;-75
2022/04/28 07:49:04;;;;;;;2.00;1.90;;;;;;;;;;799191;74;26251;-76
2022/04/28 07:50:07;;;;;;;2.45;2.25;;;;;;;;;;795638;74;26242;-74
2022/04/28 07:51:09;;;;;;;2.10;1.90;;;;;;;;;;798390;73;26669;-77
2022/04/28 07:52:12;;;;;;;2.30;2.20;;;;;;;;;;799297;73;26712;-76
2022/04/28 07:53:15;;;;;;;2.05;1.95;;;;;;;;;;799088;74;26751;-75
2022/04/28 07:54:18;;;;;;;2.00;1.90;;;;;;;;;;799166;74;26430;-75
2022/04/28 07:55:23;;;;;;;2.08;1.98;;;;;;;;;;801976;73;26235;-74
2022/04/28 07:56:25;;;;;;;2.15;2.05;;;;;;;;;;795290;74;26255;-75
2022/04/28 07:57:29;;;;;;;2.20;2.10;;;;;;;;;;796578;74;26239;-76
2022/04/28 07:58:32;;;;;;;2.35;2.12;;;;;;;;;;798686;74;26247;-75
2022/04/28 07:59:36;;;;;;;1.90;1.80;;;;;;;;;;791415;74;26235;-75
2022/04/28 08:07:00;;;;;;;2.45;2.25;;;;;;;;;;784455;74;26282;-74
2022/04/28 08:08:06;;;;;;;2.10;2.00;;;;;;;;;;787406;74;26298;-73
2022/04/28 08:09:09;;;;;;;2.25;2.10;;;;;;;;;;777045;76;26738;-74
2022/04/28 08:10:14;;;;;;;2.30;2.10;;;;;;;;;;770607;75;26777;-74
2022/04/28 08:11:17;;;;;;;2.20;2.02;;;;;;;;;;766399;76;26774;-76
2022/04/28 08:12:23;;;;;;;3.52;2.20;;;;;;;;;;788416;73;26245;-77
2022/04/28 08:13:27;;;;;;;2.30;2.20;;;;;;;;;;782466;73;26652;-75
2022/04/28 08:14:30;;;;;;;2.20;2.10;;;;;;;;;;764463;77;26250;-74
2022/04/28 08:15:33;;;;;;;2.42;2.20;;;;;;;;;;775431;76;26327;-74
2022/04/28 08:16:37;;;;;;;2.05;1.95;;;;;;;;;;767464;76;26707;-75
2022/04/28 08:17:41;;;;;;;2.45;2.25;;;;;;;;;;770541;74;26330;-77
2022/04/28 08:18:44;;;;;;;3.10;2.08;;;;;;;;;;772875;76;27262;-76
2022/04/28 08:19:47;;;;;;;2.00;1.90;;;;;;;;;;768640;75;26694;-75
2022/04/28 08:20:50;;;;;;;1.92;1.82;;;;;;;;;;787528;73;26304;-75
2022/04/28 08:21:53;;;;;;;2.37;2.27;;;;;;;;;;771083;75;26271;-74
2022/04/28 08:22:56;;;;;;;2.37;2.00;;;;;;;;;;769000;76;26724;-74
2022/04/28 08:23:58;;;;;;;2.65;2.20;;;;;;;;;;768278;76;26239;-76
2022/04/28 08:25:02;;;;;;;2.58;2.40;;;;;;;;;;774478;76;26356;-77
2022/04/28 08:26:05;;;;;;;2.85;2.25;;;;;;;;;;774624;75;26738;-76
2022/04/28 08:27:08;;;;;;;4.75;2.27;;;;;;;;;;775119;74;26247;-75
2022/04/28 08:28:11;;;;;;;2.20;2.00;;;;;;;;;;775029;75;26256;-76
2022/04/28 08:29:14;;;;;;;2.40;2.30;;;;;;;;;;770484;76;26258;-74
2022/04/28 08:30:17;;;;;;;4.50;2.30;;;;;;;;;;771350;74;26454;-75
2022/04/28 08:31:20;;;;;;;2.25;2.05;;;;;;;;;;774536;75;26308;-75
2022/04/28 08:32:23;;;;;;;2.98;2.45;;;;;;;;;;773673;75;26413;-74
2022/04/28 08:33:26;;;;;;;2.12;2.02;;;;;;;;;;772820;75;26262;-73
2022/04/28 08:34:28;;;;;;;4.60;2.60;;;;;;;;;;772585;75;26316;-75
2022/04/28 08:35:31;;;;;;;3.20;2.80;;;;;;;;;;773966;76;26391;-73
2022/04/28 08:36:34;;;;;;;2.58;2.30;;;;;;;;;;774897;75;26737;-75
2022/04/28 08:37:39;;;;;;;2.45;2.25;;;;;;;;;;768874;74;26317;-75
2022/04/28 08:38:41;;;;;;;2.22;2.12;;;;;;;;;;767753;76;26305;-76
2022/04/28 08:39:44;;;;;;;7.85;3.02;;;;;;;;;;774135;75;26320;-75
2022/04/28 08:40:48;;;;;;;2.60;2.30;;;;;;;;;;772558;75;26258;-74
2022/04/28 08:41:53;;;;;;;2.87;2.40;;;;;;;;;;768248;75;26301;-74
2022/04/28 08:42:59;;;;;;;2.87;2.50;;;;;;;;;;774404;76;26684;-75
2022/04/28 08:44:03;;;;;;;2.80;2.60;;;;;;;;;;767728;74;26655;-75
2022/04/28 08:45:06;;;;;;;2.40;2.20;;;;;;;;;;771445;76;26734;-74
2022/04/28 08:47:31;;;;;;;2.50;2.40;;;;;;;;;;781070;73;26683;-76
2022/04/28 08:48:34;;;;;;;3.30;2.77;;;;;;;;;;773229;76;26273;-75
2022/04/28 08:56:14;;;;;;;2.75;2.55;;;;;;;;;;780360;75;26223;-74
2022/04/28 08:57:27;;;;;;;2.83;2.62;;;;;;;;;;797382;74;26334;-74
2022/04/28 08:58:28;;;;;;;2.95;2.75;;;;;;;;;;786940;73;26722;-75
2022/04/28 08:59:32;;;;;;;5.05;4.30;;;;;;;;;;793734;73;26234;-74
2022/04/28 09:00:37;;;;;;;4.28;3.87;;;;;;;;;;795189;74;26246;-74
2022/04/28 09:01:40;;;;;;;3.80;3.27;;;;;;;;;;792846;73;26246;-75
2022/04/28 09:02:43;;;;;;;2.90;2.70;;;;;;;;;;793662;73;26676;-74
2022/04/28 09:03:46;;;;;;;5.00;2.98;;;;;;;;;;801929;73;26743;-73
2022/04/28 09:04:51;;;;;;;3.10;2.90;;;;;;;;;;780274;74;26243;-76
2022/04/28 09:05:55;;;;;;;5.30;2.60;;;;;;;;;;789837;73;26632;-76
2022/04/28 09:06:58;;;;;;;3.08;2.67;;;;;;;;;;786617;73;26317;-75
2022/04/28 09:08:01;;;;;;;2.83;2.62;;;;;;;;;;785670;74;26236;-74
2022/04/28 09:09:14;;;;;;;2.60;2.40;;;;;;;;;;791063;73;26673;-75
2022/04/28 09:10:27;;;;;;;2.70;2.50;;;;;;;;;;794276;73;26243;-75
2022/04/28 09:11:30;;;;;;;3.22;2.95;;;;;;;;;;788116;73;26243;-75
2022/04/28 09:12:32;;;;;;;2.50;2.35;;;;;;;;;;789341;73;26244;-75
2022/04/28 09:14:58;;;;;;;5.30;2.83;;;;;;;;;;779813;74;26250;-75
2022/04/28 09:16:01;;;;;;;3.20;2.70;;;;;;;;;;768353;75;26298;-77
2022/04/28 09:17:04;;;;;;;3.42;3.10;;;;;;;;;;773177;74;26313;-74
2022/04/28 09:18:08;;;;;;;3.87;3.15;;;;;;;;;;772527;74;26692;-77
2022/04/28 09:19:12;;;;;;;3.25;2.95;;;;;;;;;;774154;75;26225;-74
2022/04/28 09:20:16;;;;;;;3.52;3.22;;;;;;;;;;778575;74;26700;-75
2022/04/28 09:22:30;;;;;;;2.95;2.75;;;;;;;;;;789177;74;26235;-74
2022/04/28 09:23:33;;;;;;;3.67;3.37;;;;;;;;;;785678;73;26711;-76
2022/04/28 09:24:39;;;;;;;3.47;3.17;;;;;;;;;;786814;73;26812;-76
2022/04/28 09:25:42;;;;;;;3.77;3.47;;;;;;;;;;786201;74;26243;-75
2022/04/28 09:26:45;;;;;;;3.70;3.40;;;;;;;;;;790096;73;26336;-74
2022/04/28 09:27:49;;;;;;;4.35;3.80;;;;;;;;;;800071;73;26243;-74
2022/04/28 09:28:54;;;;;;;4.20;3.80;;;;;;;;;;787899;73;26286;-75
2022/04/28 09:29:59;;;;;;;3.90;3.60;;;;;;;;;;789528;73;27548;-75
2022/04/28 09:31:02;;;;;;;4.37;3.85;;;;;;;;;;776730;75;26819;-76
2022/04/28 09:32:09;;;;;;;4.28;3.92;;;;;;;;;;787461;74;26293;-73
2022/04/28 09:33:15;;;;;;;3.98;3.67;;;;;;;;;;775998;74;26680;-74
2022/04/28 09:34:19;;;;;;;5.17;4.30;;;;;;;;;;791123;74;26421;-76
2022/04/28 09:43:29;;;;;;;3.15;2.80;;;;;;;;;;770431;74;26421;-75
2022/04/28 09:44:32;;;;;;;3.87;3.58;;;;;;;;;;765185;75;26310;-76
2022/04/28 09:45:37;;;;;;;3.40;3.10;;;;;;;;;;766440;75;26241;-75
2022/04/28 09:46:41;;;;;;;3.40;3.20;;;;;;;;;;769052;75;26335;-74
2022/04/28 09:47:46;;;;;;;3.20;3.00;;;;;;;;;;767285;75;26319;-75
2022/04/28 09:48:54;;;;;;;3.00;2.80;;;;;;;;;;769389;74;26268;-77
2022/04/28 09:49:57;;;;;;;3.65;3.35;;;;;;;;;;786548;74;26254;-78
2022/04/28 09:51:04;;;;;;;4.10;3.58;;;;;;;;;;785630;74;26297;-76
2022/04/28 09:55:05;;;;;;;3.10;2.90;;;;;;;;;;768013;74;26665;-74
2022/04/28 09:56:08;;;;;;;3.00;2.80;;;;;;;;;;762266;76;26340;-75
2022/04/28 09:57:11;;;;;;;3.58;2.77;;;;;;;;;;789988;75;26789;-75
2022/04/28 09:58:15;;;;;;;3.33;3.00;;;;;;;;;;785459;75;26714;-75
2022/04/28 09:59:18;;;;;;;3.55;3.25;;;;;;;;;;755917;76;26315;-76
2022/04/28 10:00:21;;;;;;;4.47;3.92;;;;;;;;;;782152;75;26337;-75
2022/04/28 10:01:25;;;;;;;4.30;4.00;;;;;;;;;;777507;75;26639;-76
2022/04/28 10:02:28;;;;;;;5.72;4.72;;;;;;;;;;778302;75;26240;-76
2022/04/28 10:03:33;;;;;;;6.87;4.45;;;;;;;;;;760917;77;26284;-77
2022/04/28 10:04:36;;;;;;;4.95;3.60;;;;;;;;;;758932;77;26273;-76
2022/04/28 10:05:39;;;;;;;3.83;3.50;;;;;;;;;;746222;76;26250;-76
2022/04/28 10:06:42;;;;;;;3.90;3.50;;;;;;;;;;758988;76;26689;-76
2022/04/28 10:07:46;;;;;;;3.87;3.02;;;;;;;;;;768247;76;26734;-75
2022/04/28 10:08:51;;;;;;;3.40;3.10;;;;;;;;;;756803;75;26398;-74
2022/04/28 10:09:54;;;;;;;2.87;2.60;;;;;;;;;;773550;74;26378;-74
2022/04/28 10:10:57;;;;;;;3.45;3.15;;;;;;;;;;782919;75;27470;-76
2022/04/28 10:12:00;;;;;;;3.20;3.00;;;;;;;;;;774160;75;26302;-74
2022/04/28 10:13:04;;;;;;;3.25;3.05;;;;;;;;;;783613;74;26317;-74
2022/04/28 10:14:09;;;;;;;3.58;3.30;;;;;;;;;;786364;73;26243;-73
2022/04/28 10:15:13;;;;;;;3.37;3.10;;;;;;;;;;783107;74;26251;-73
2022/04/28 10:16:18;;;;;;;5.62;3.30;;;;;;;;;;781109;74;26258;-74
2022/04/28 10:17:22;;;;;;;3.70;3.40;;;;;;;;;;758140;76;26434;-73
2022/04/28 10:18:27;;;;;;;3.60;3.25;;;;;;;;;;768661;76;26340;-75
2022/04/28 10:19:34;;;;;;;4.55;4.20;;;;;;;;;;764443;76;26883;-74
2022/04/28 10:20:50;;;;;;;6.62;5.15;;;;;;;;;;766003;75;26333;-75
2022/04/28 10:21:56;;;;;;;7.95;6.25;;;;;;;;;;771524;75;26325;-73
2022/04/28 10:33:06;;;;;;;4.17;3.77;;;;;;;;;;783990;74;26398;-74
2022/04/28 10:34:11;;;;;;;5.30;4.20;;;;;;;;;;777519;74;26239;-73
2022/04/28 10:35:14;;;;;;;5.45;4.42;;;;;;;;;;774688;75;26350;-74
2022/04/28 10:36:25;;;;;;;4.20;3.90;;;;;;;;;;778903;74;26693;-74
2022/04/28 10:37:31;;;;;;;4.45;4.05;;;;;;;;;;781426;75;27652;-75
2022/04/28 10:38:38;;;;;;;5.03;3.92;;;;;;;;;;783986;75;26356;-73
2022/04/28 10:39:44;;;;;;;3.90;3.60;;;;;;;;;;772343;75;26241;-74
2022/04/28 10:40:58;;;;;;;3.80;3.60;;;;;;;;;;778914;75;26364;-73
2022/04/28 10:42:03;;;;;;;3.95;3.75;;;;;;;;;;772201;75;26687;-73
2022/04/28 10:43:07;;;;;;;5.50;4.08;;;;;;;;;;785463;74;26250;-74
2022/04/28 10:44:16;;;;;;;3.87;3.58;;;;;;;;;;760773;76;26679;-74
2022/04/28 10:45:20;;;;;;;3.50;3.30;;;;;;;;;;768404;76;26391;-75
2022/04/28 10:46:28;;;;;;;3.70;3.37;;;;;;;;;;765172;76;26265;-75
2022/04/28 10:47:35;;;;;;;4.12;3.70;;;;;;;;;;764068;76;26344;-73
2022/04/28 10:48:46;;;;;;;5.08;3.75;;;;;;;;;;763180;76;26253;-73
2022/04/28 10:49:55;;;;;;;4.92;4.22;;;;;;;;;;767672;75;26265;-75
2022/04/28 10:51:02;;;;;;;5.12;4.62;;;;;;;;;;777826;75;26433;-75
2022/04/28 10:52:05;;;;;;;6.10;5.50;;;;;;;;;;773820;75;27889;-74
2022/04/28 10:53:09;;;;;;;6.47;4.87;;;;;;;;;;771666;75;26250;-73
2022/04/28 10:54:21;;;;;;;4.37;4.03;;;;;;;;;;780161;75;26250;-76
2022/04/28 10:55:23;;;;;;;5.62;4.12;;;;;;;;;;780223;74;26250;-74
2022/04/28 10:56:28;;;;;;;4.10;3.70;;;;;;;;;;776241;75;26301;-74
2022/04/28 10:57:31;;;;;;;4.47;4.10;;;;;;;;;;777499;74;26378;-75
2022/04/28 10:58:36;;;;;;;4.90;3.70;;;;;;;;;;776729;73;26688;-75
2022/04/28 10:59:41;;;;;;;4.42;4.00;;;;;;;;;;784488;74;26247;-76
2022/04/28 11:00:55;;;;;;;3.92;3.62;;;;;;;;;;782614;74;26236;-74
2022/04/28 11:01:59;;;;;;;4.47;3.72;;;;;;;;;;774293;74;26293;-75